createdAt,value
2022-09-12T00:02:04.837Z,19.73
2022-09-12T00:04:33.124Z,19.71
2022-09-12T00:07:01.256Z,19.69
2022-09-12T00:09:29.103Z,19.66
2022-09-12T00:11:57.329Z,19.65
2022-09-12T00:14:25.113Z,19.63
2022-09-12T00:16:55.154Z,19.62
2022-09-12T00:19:23.401Z,19.59
2022-09-12T00:21:51.163Z,19.57
2022-09-12T00:24:19.383Z,19.55
2022-09-12T00:26:47.949Z,19.52
2022-09-12T00:29:17.673Z,19.51
2022-09-12T00:31:46.160Z,19.50
2022-09-12T00:34:16.444Z,19.48
2022-09-12T00:36:44.234Z,19.47
2022-09-12T00:39:17.094Z,19.47
2022-09-12T00:41:45.900Z,19.39
2022-09-12T00:44:46.734Z,19.40
2022-09-12T00:47:20.521Z,19.40
2022-09-12T00:49:54.905Z,19.37
2022-09-12T00:52:28.023Z,19.36
2022-09-12T00:55:02.382Z,19.35
2022-09-12T00:57:34.427Z,19.33
2022-09-12T01:00:10.378Z,19.33
2022-09-12T01:02:38.568Z,19.31
2022-09-12T01:05:10.036Z,19.31
2022-09-12T01:07:40.228Z,19.27
2022-09-12T01:10:10.562Z,19.26
2022-09-12T01:12:41.706Z,19.25
2022-09-12T01:15:10.340Z,19.22
2022-09-12T01:17:52.856Z,19.23
2022-09-12T01:20:51.970Z,19.21
2022-09-12T01:23:59.918Z,19.17
2022-09-12T01:26:59.106Z,19.15
2022-09-12T01:29:50.433Z,19.14
2022-09-12T01:32:27.449Z,19.12
2022-09-12T01:35:05.464Z,19.10
2022-09-12T01:37:42.195Z,19.08
2022-09-12T01:40:16.651Z,19.06
2022-09-12T01:42:52.580Z,19.03
2022-09-12T01:45:29.674Z,19.04
2022-09-12T01:48:04.569Z,19.02
2022-09-12T01:50:35.500Z,18.99
2022-09-12T01:53:08.787Z,18.98
2022-09-12T01:55:43.697Z,18.98
2022-09-12T01:58:17.660Z,18.96
2022-09-12T02:00:53.086Z,18.96
2022-09-12T02:03:25.544Z,18.98
2022-09-12T02:05:57.909Z,18.97
2022-09-12T02:08:31.213Z,18.93
2022-09-12T02:11:05.342Z,18.93
2022-09-12T02:13:36.003Z,18.89
2022-09-12T02:16:11.064Z,18.89
2022-09-12T02:18:45.793Z,18.87
2022-09-12T02:21:15.584Z,18.83
2022-09-12T02:23:49.832Z,18.84
2022-09-12T02:26:23.049Z,18.83
2022-09-12T02:28:51.601Z,18.80
2022-09-12T02:31:27.593Z,18.79
2022-09-12T02:34:09.406Z,18.77
2022-09-12T02:36:51.471Z,18.76
2022-09-12T02:39:21.172Z,18.73
2022-09-12T02:41:52.294Z,18.72
2022-09-12T02:44:21.166Z,18.69
2022-09-12T02:46:53.204Z,18.68
2022-09-12T02:49:22.715Z,18.66
2022-09-12T02:51:51.226Z,18.63
2022-09-12T02:54:20.696Z,18.63
2022-09-12T02:56:49.022Z,18.61
2022-09-12T02:59:21.454Z,18.60
2022-09-12T03:02:05.143Z,18.61
2022-09-12T03:04:55.996Z,18.59
2022-09-12T03:07:43.877Z,18.60
2022-09-12T03:10:21.703Z,18.58
2022-09-12T03:12:59.911Z,18.57
2022-09-12T03:15:41.560Z,18.55
2022-09-12T03:18:23.453Z,18.52
2022-09-12T03:21:03.605Z,18.51
2022-09-12T03:23:36.279Z,18.49
2022-09-12T03:26:12.446Z,18.48
2022-09-12T03:28:42.363Z,18.44
2022-09-12T03:31:15.609Z,18.44
2022-09-12T03:33:44.429Z,18.41
2022-09-12T03:36:18.413Z,18.39
2022-09-12T03:38:46.745Z,18.37
2022-09-12T03:41:14.693Z,18.35
2022-09-12T03:43:43.344Z,18.34
2022-09-12T03:46:11.644Z,18.31
2022-09-12T03:48:39.713Z,18.29
2022-09-12T03:51:10.386Z,18.28
2022-09-12T03:53:40.090Z,18.27
2022-09-12T03:56:09.158Z,18.25
2022-09-12T03:58:38.721Z,18.24
2022-09-12T04:01:12.948Z,18.25
2022-09-12T04:03:41.718Z,18.22
2022-09-12T04:06:11.678Z,18.20
2022-09-12T04:08:40.894Z,18.21
2022-09-12T04:11:12.308Z,18.21
2022-09-12T04:13:41.629Z,18.19
2022-09-12T04:16:10.158Z,18.17
2022-09-12T04:18:38.756Z,18.15
2022-09-12T04:21:08.101Z,18.16
2022-09-12T04:23:36.386Z,18.14
2022-09-12T04:26:07.872Z,18.15
2022-09-12T04:28:37.266Z,18.14
2022-09-12T04:31:07.923Z,18.13
2022-09-12T04:33:36.004Z,18.10
2022-09-12T04:36:08.162Z,18.12
2022-09-12T04:38:37.336Z,18.09
2022-09-12T04:41:13.783Z,18.09
2022-09-12T04:43:42.581Z,18.07
2022-09-12T04:46:12.199Z,18.06
2022-09-12T04:48:40.998Z,18.05
2022-09-12T04:51:10.821Z,18.04
2022-09-12T04:53:39.117Z,18.04
2022-09-12T04:56:08.962Z,18.02
2022-09-12T04:58:39.219Z,18.02
2022-09-12T05:01:09.177Z,18.00
2022-09-12T05:03:39.573Z,17.98
2022-09-12T05:06:10.066Z,17.99
2022-09-12T05:08:38.380Z,17.97
2022-09-12T05:11:07.873Z,17.95
2022-09-12T05:13:35.986Z,17.95
2022-09-12T05:16:07.196Z,17.96
2022-09-12T05:18:36.791Z,17.93
2022-09-12T05:21:06.886Z,17.93
2022-09-12T05:23:35.045Z,17.90
2022-09-12T05:26:04.663Z,17.92
2022-09-12T05:28:34.551Z,17.92
2022-09-12T05:31:04.082Z,17.92
2022-09-12T05:33:34.859Z,17.93
2022-09-12T05:36:03.173Z,17.91
2022-09-12T05:38:31.392Z,17.90
2022-09-12T05:41:04.816Z,17.91
2022-09-12T05:43:33.174Z,17.88
2022-09-12T05:46:04.413Z,17.81
2022-09-12T05:48:34.786Z,17.86
2022-09-12T05:51:23.469Z,17.84
2022-09-12T05:53:53.729Z,17.81
2022-09-12T05:56:24.674Z,17.86
2022-09-12T05:58:55.242Z,17.85
2022-09-12T06:01:24.488Z,17.85
2022-09-12T06:03:55.402Z,17.87
2022-09-12T06:06:25.861Z,17.86
2022-09-12T06:08:55.873Z,17.85
2022-09-12T06:11:26.160Z,17.85
2022-09-12T06:13:54.814Z,17.84
2022-09-12T06:16:26.373Z,17.81
2022-09-12T06:18:57.295Z,17.88
2022-09-12T06:21:26.961Z,17.88
2022-09-12T06:23:56.736Z,17.92
2022-09-12T06:26:25.753Z,17.96
2022-09-12T06:28:55.283Z,18.00
2022-09-12T06:31:26.727Z,18.04
2022-09-12T06:33:57.698Z,18.10
2022-09-12T06:36:27.954Z,18.17
2022-09-12T06:38:57.284Z,18.22
2022-09-12T06:41:27.228Z,18.28
2022-09-12T06:43:55.486Z,18.35
2022-09-12T06:46:24.063Z,18.43
2022-09-12T06:48:51.886Z,18.52
2022-09-12T06:51:21.467Z,18.63
2022-09-12T06:53:50.842Z,18.70
2022-09-12T06:56:21.057Z,18.83
2022-09-12T06:58:50.287Z,18.97
2022-09-12T07:01:20.786Z,19.10
2022-09-12T07:03:50.138Z,19.24
2022-09-12T07:06:20.244Z,19.37
2022-09-12T07:08:49.649Z,19.46
2022-09-12T07:11:20.431Z,19.66
2022-09-12T07:13:50.739Z,19.77
2022-09-12T07:16:20.269Z,19.94
2022-09-12T07:18:52.307Z,20.11
2022-09-12T07:21:20.988Z,20.23
2022-09-12T07:23:51.828Z,20.32
2022-09-12T07:26:20.238Z,20.50
2022-09-12T07:28:52.670Z,20.63
2022-09-12T07:31:21.569Z,20.75
2022-09-12T07:33:54.423Z,20.87
2022-09-12T07:36:25.420Z,21.01
2022-09-12T07:38:58.951Z,21.13
2022-09-12T07:41:28.453Z,21.25
2022-09-12T07:43:57.769Z,21.36
2022-09-12T07:46:27.372Z,21.47
2022-09-12T07:48:56.876Z,21.59
2022-09-12T07:51:25.804Z,21.72
2022-09-12T07:56:41.981Z,21.98
2022-09-12T07:59:10.717Z,22.11
2022-09-12T08:01:39.881Z,22.22
2022-09-12T08:04:07.643Z,22.33
2022-09-12T08:06:36.426Z,22.44
2022-09-12T08:09:04.886Z,22.55
2022-09-12T08:11:33.503Z,22.62
2022-09-12T08:14:03.129Z,22.71
2022-09-12T08:16:32.199Z,22.77
2022-09-12T08:19:02.217Z,22.83
2022-09-12T08:21:31.906Z,22.86
2022-09-12T08:24:02.361Z,22.91
2022-09-12T08:26:31.161Z,22.96
2022-09-12T08:28:58.902Z,23.03
2022-09-12T08:31:29.620Z,23.07
2022-09-12T08:33:58.278Z,23.13
2022-09-12T08:36:28.547Z,23.19
2022-09-12T08:38:59.944Z,23.24
2022-09-12T08:41:31.797Z,23.30
2022-09-12T08:44:20.244Z,23.37
2022-09-12T08:47:08.192Z,23.44
2022-09-12T08:49:40.884Z,23.47
2022-09-12T08:52:17.008Z,23.58
2022-09-12T08:54:45.932Z,23.63
2022-09-12T08:57:16.155Z,23.73
2022-09-12T08:59:46.647Z,23.82
2022-09-12T09:02:34.473Z,23.91
2022-09-12T09:05:12.540Z,24.01
2022-09-12T09:08:08.793Z,24.10
2022-09-12T09:10:48.355Z,24.19
2022-09-12T09:13:41.223Z,24.28
2022-09-12T09:16:18.299Z,24.38
2022-09-12T09:18:49.458Z,24.46
2022-09-12T09:21:25.190Z,24.51
2022-09-12T09:24:00.466Z,24.59
2022-09-12T09:26:30.469Z,24.67
2022-09-12T09:29:03.396Z,24.73
2022-09-12T09:31:37.855Z,24.77
2022-09-12T09:34:15.414Z,24.82
2022-09-12T09:36:52.579Z,24.85
2022-09-12T09:39:43.338Z,24.89
2022-09-12T09:42:25.737Z,24.93
2022-09-12T09:44:57.006Z,24.97
2022-09-12T09:47:25.223Z,25.04
2022-09-12T09:49:54.316Z,25.10
2022-09-12T09:52:28.052Z,25.16
2022-09-12T09:54:58.891Z,25.21
2022-09-12T09:57:52.740Z,25.29
2022-09-12T10:00:34.191Z,25.38
2022-09-12T10:03:29.878Z,25.45
2022-09-12T10:06:02.071Z,25.53
2022-09-12T10:08:32.192Z,25.59
2022-09-12T10:11:03.219Z,25.64
2022-09-12T10:13:38.098Z,25.73
2022-09-12T10:16:08.338Z,25.78
2022-09-12T10:18:42.471Z,25.87
2022-09-12T10:21:25.865Z,25.93
2022-09-12T10:24:01.137Z,25.99
2022-09-12T10:26:34.739Z,26.05
2022-09-12T10:29:11.324Z,26.09
2022-09-12T10:31:47.220Z,26.14
2022-09-12T10:34:32.468Z,26.22
2022-09-12T10:37:07.736Z,26.28
2022-09-12T10:39:39.144Z,26.32
2022-09-12T10:42:07.278Z,26.36
2022-09-12T10:44:36.301Z,26.40
2022-09-12T10:47:23.371Z,26.44
2022-09-12T10:49:51.271Z,26.46
2022-09-12T10:52:24.311Z,26.52
2022-09-12T10:54:52.398Z,26.55
2022-09-12T10:57:54.536Z,26.61
2022-09-12T11:00:28.009Z,26.67
2022-09-12T11:03:04.979Z,26.73
2022-09-12T11:05:52.600Z,26.76
2022-09-12T11:08:59.789Z,26.83
2022-09-12T11:11:50.269Z,26.90
2022-09-12T11:14:39.049Z,26.96
2022-09-12T11:17:20.041Z,27.00
2022-09-12T11:20:26.614Z,27.04
2022-09-12T11:23:29.165Z,27.09
2022-09-12T11:26:06.091Z,27.15
2022-09-12T11:28:51.011Z,27.18
2022-09-12T11:31:41.125Z,27.22
2022-09-12T11:34:11.363Z,27.27
2022-09-12T11:36:49.322Z,27.32
2022-09-12T11:39:18.980Z,27.34
2022-09-12T11:41:53.688Z,27.39
2022-09-12T11:44:25.496Z,27.42
2022-09-12T11:46:53.244Z,27.46
2022-09-12T11:49:35.249Z,27.51
2022-09-12T11:52:08.148Z,27.54
2022-09-12T11:54:43.246Z,27.53
2022-09-12T11:57:17.865Z,27.63
2022-09-12T11:59:50.993Z,27.67
2022-09-12T12:02:26.505Z,27.69
2022-09-12T12:05:05.092Z,27.69
2022-09-12T12:07:45.367Z,27.70
2022-09-12T12:10:31.052Z,27.68
2022-09-12T12:13:02.005Z,27.68
2022-09-12T12:15:31.921Z,27.69
2022-09-12T12:18:08.890Z,27.71
2022-09-12T12:20:37.631Z,27.71
2022-09-12T12:23:05.677Z,27.70
2022-09-12T12:25:43.142Z,27.73
2022-09-12T12:28:12.278Z,27.73
2022-09-12T12:31:05.869Z,27.73
2022-09-12T12:34:16.328Z,27.76
2022-09-12T12:36:44.765Z,27.75
2022-09-12T12:40:05.670Z,27.78
2022-09-12T12:43:05.699Z,27.79
2022-09-12T12:46:12.928Z,27.80
2022-09-12T12:49:04.519Z,27.79
2022-09-12T12:51:37.614Z,27.80
2022-09-12T12:54:13.121Z,27.79
2022-09-12T12:56:43.102Z,27.79
2022-09-12T12:59:19.123Z,27.81
2022-09-12T13:01:54.950Z,27.81
2022-09-12T13:04:27.079Z,27.81
2022-09-12T13:07:07.634Z,27.81
2022-09-12T13:09:40.610Z,27.80
2022-09-12T13:12:12.440Z,27.78
2022-09-12T13:14:54.014Z,27.77
2022-09-12T13:17:29.331Z,27.76
2022-09-12T13:20:27.220Z,27.75
2022-09-12T13:22:56.232Z,27.72
2022-09-12T13:25:27.889Z,27.72
2022-09-12T13:28:00.573Z,27.72
2022-09-12T13:30:29.852Z,27.70
2022-09-12T13:33:03.095Z,27.70
2022-09-12T13:35:41.376Z,27.72
2022-09-12T13:38:18.397Z,27.74
2022-09-12T13:41:04.417Z,27.75
2022-09-12T13:43:39.030Z,27.77
2022-09-12T13:46:09.147Z,27.78
2022-09-12T13:48:37.198Z,27.78
2022-09-12T13:51:06.829Z,27.81
2022-09-12T13:53:43.710Z,27.84
2022-09-12T13:56:17.740Z,27.85
2022-09-12T13:58:54.454Z,27.90
2022-09-12T14:01:22.934Z,27.89
2022-09-12T14:04:10.227Z,27.91
2022-09-12T14:06:48.120Z,27.95
2022-09-12T14:09:23.019Z,27.96
2022-09-12T14:11:53.747Z,27.98
2022-09-12T14:14:31.828Z,28.01
2022-09-12T14:17:00.178Z,28.00
2022-09-12T14:19:29.193Z,28.02
2022-09-12T14:21:59.553Z,28.03
2022-09-12T14:24:27.676Z,28.03
2022-09-12T14:26:57.791Z,28.06
2022-09-12T14:29:26.819Z,28.06
2022-09-12T14:32:02.858Z,28.09
2022-09-12T14:34:31.518Z,28.11
2022-09-12T14:37:00.863Z,28.12
2022-09-12T14:39:33.855Z,28.16
2022-09-12T14:42:05.259Z,28.17
2022-09-12T14:44:34.982Z,28.17
2022-09-12T14:47:13.984Z,28.21
2022-09-12T14:49:43.355Z,28.22
2022-09-12T14:52:40.088Z,28.23
2022-09-12T14:55:22.784Z,28.27
2022-09-12T14:58:13.150Z,28.29
2022-09-12T15:00:54.363Z,28.30
2022-09-12T15:03:27.106Z,28.30
2022-09-12T15:05:55.720Z,28.30
2022-09-12T15:08:25.812Z,28.31
2022-09-12T15:10:53.936Z,28.31
2022-09-12T15:13:24.008Z,28.30
2022-09-12T15:15:53.818Z,28.32
2022-09-12T15:18:23.000Z,28.32
2022-09-12T15:20:52.846Z,28.32
2022-09-12T15:23:30.544Z,28.34
2022-09-12T15:25:58.334Z,28.33
2022-09-12T15:28:26.899Z,28.33
2022-09-12T15:30:57.119Z,28.34
2022-09-12T15:33:26.059Z,28.30
2022-09-12T15:35:54.723Z,28.33
2022-09-12T15:38:26.388Z,28.34
2022-09-12T15:40:57.103Z,28.32
2022-09-12T15:43:26.398Z,28.32
2022-09-12T15:45:54.224Z,28.31
2022-09-12T15:48:22.437Z,28.31
2022-09-12T15:50:50.270Z,28.30
2022-09-12T15:53:18.610Z,28.29
2022-09-12T15:55:46.902Z,28.28
2022-09-12T15:58:16.014Z,28.29
2022-09-12T16:00:43.836Z,28.26
2022-09-12T16:03:21.958Z,28.29
2022-09-12T16:05:50.611Z,28.26
2022-09-12T16:08:18.355Z,28.26
2022-09-12T16:10:48.827Z,28.27
2022-09-12T16:13:18.566Z,28.27
2022-09-12T16:15:46.350Z,28.26
2022-09-12T16:18:14.185Z,28.23
2022-09-12T16:20:42.762Z,28.21
2022-09-12T16:23:12.770Z,28.18
2022-09-12T16:25:42.062Z,28.14
2022-09-12T16:28:10.441Z,28.12
2022-09-12T16:30:41.256Z,28.10
2022-09-12T16:33:09.518Z,28.08
2022-09-12T16:35:37.256Z,27.99
2022-09-12T16:38:04.976Z,28.02
2022-09-12T16:40:32.941Z,27.98
2022-09-12T16:43:00.718Z,27.96
2022-09-12T16:45:29.023Z,27.93
2022-09-12T16:47:58.174Z,27.90
2022-09-12T16:50:25.932Z,27.87
2022-09-12T16:52:54.250Z,27.84
2022-09-12T16:55:22.302Z,27.81
2022-09-12T16:57:51.088Z,27.78
2022-09-12T17:00:19.072Z,27.75
2022-09-12T17:02:47.539Z,27.72
2022-09-12T17:05:17.300Z,27.68
2022-09-12T17:07:45.113Z,27.65
2022-09-12T17:10:13.530Z,27.61
2022-09-12T17:12:41.250Z,27.56
2022-09-12T17:15:09.992Z,27.54
2022-09-12T17:17:38.257Z,27.48
2022-09-12T17:20:06.802Z,27.43
2022-09-12T17:22:35.942Z,27.41
2022-09-12T17:25:04.373Z,27.34
2022-09-12T17:27:33.827Z,27.31
2022-09-12T17:30:02.177Z,27.25
2022-09-12T17:32:30.000Z,27.20
2022-09-12T17:34:58.488Z,27.16
2022-09-12T17:37:26.240Z,27.10
2022-09-12T17:39:55.405Z,27.05
2022-09-12T17:42:24.865Z,26.99
2022-09-12T17:44:52.867Z,26.90
2022-09-12T17:47:20.753Z,26.85
2022-09-12T17:49:48.569Z,26.79
2022-09-12T17:52:16.367Z,26.73
2022-09-12T17:54:44.531Z,26.69
2022-09-12T17:57:13.637Z,26.64
2022-09-12T17:59:41.408Z,26.58
2022-09-12T18:02:16.320Z,26.55
2022-09-12T18:04:46.344Z,26.48
2022-09-12T18:07:14.600Z,26.43
2022-09-12T18:09:43.354Z,26.34
2022-09-12T18:12:13.116Z,26.31
2022-09-12T18:14:41.662Z,26.26
2022-09-12T18:17:11.437Z,26.21
2022-09-12T18:19:39.483Z,26.15
2022-09-12T18:22:08.198Z,26.06
2022-09-12T18:24:36.537Z,26.01
2022-09-12T18:27:05.008Z,25.95
2022-09-12T18:29:34.128Z,25.88
2022-09-12T18:32:02.727Z,25.81
2022-09-12T18:34:30.433Z,25.75
2022-09-12T18:36:59.051Z,25.69
2022-09-12T18:39:27.977Z,25.64
2022-09-12T18:41:56.527Z,25.57
2022-09-12T18:44:24.301Z,25.52
2022-09-12T18:46:54.271Z,25.48
2022-09-12T18:49:22.035Z,25.42
2022-09-12T18:51:50.272Z,25.38
2022-09-12T18:54:18.651Z,25.33
2022-09-12T18:56:46.555Z,25.27
2022-09-12T18:59:15.375Z,25.22
2022-09-12T19:01:43.866Z,25.19
2022-09-12T19:04:16.751Z,25.15
2022-09-12T19:06:46.695Z,25.09
2022-09-12T19:09:17.327Z,25.05
2022-09-12T19:11:50.073Z,25.00
2022-09-12T19:14:19.673Z,24.95
2022-09-12T19:16:47.819Z,24.92
2022-09-12T19:19:16.935Z,24.86
2022-09-12T19:21:45.464Z,24.80
2022-09-12T19:24:14.369Z,24.76
2022-09-12T19:26:42.605Z,24.71
2022-09-12T19:29:12.242Z,24.67
2022-09-12T19:31:40.091Z,24.62
2022-09-12T19:34:09.259Z,24.56
2022-09-12T19:36:47.442Z,24.56
2022-09-12T19:39:16.847Z,24.51
2022-09-12T19:41:45.406Z,24.41
2022-09-12T19:44:13.162Z,24.44
2022-09-12T19:46:42.142Z,24.41
2022-09-12T19:49:11.581Z,24.36
2022-09-12T19:51:41.148Z,24.32
2022-09-12T19:54:09.575Z,24.26
2022-09-12T19:56:37.532Z,24.23
2022-09-12T19:59:05.701Z,24.20
2022-09-12T20:01:34.671Z,24.16
2022-09-12T20:04:03.630Z,24.10
2022-09-12T20:06:31.450Z,24.07
2022-09-12T20:09:00.790Z,24.04
2022-09-12T20:11:28.973Z,23.99
2022-09-12T20:13:56.708Z,23.96
2022-09-12T20:16:28.769Z,23.92
2022-09-12T20:18:58.978Z,23.89
2022-09-12T20:21:31.680Z,23.86
2022-09-12T20:24:06.270Z,23.85
2022-09-12T20:26:34.720Z,23.80
2022-09-12T20:29:02.811Z,23.76
2022-09-12T20:31:31.155Z,23.73
2022-09-12T20:33:59.769Z,23.69
2022-09-12T20:36:27.604Z,23.67
2022-09-12T20:38:57.824Z,23.65
2022-09-12T20:41:29.027Z,23.63
2022-09-12T20:43:57.835Z,23.56
2022-09-12T20:46:28.209Z,23.55
2022-09-12T20:48:56.296Z,23.52
2022-09-12T20:51:24.593Z,23.47
2022-09-12T20:53:55.066Z,23.43
2022-09-12T20:56:23.512Z,23.41
2022-09-12T20:58:53.211Z,23.37
2022-09-12T21:01:21.699Z,23.32
2022-09-12T21:03:50.041Z,23.29
2022-09-12T21:06:18.772Z,23.24
2022-09-12T21:08:47.372Z,23.21
2022-09-12T21:11:16.028Z,23.16
2022-09-12T21:13:43.966Z,23.13
2022-09-12T21:16:14.756Z,23.11
2022-09-12T21:18:43.309Z,23.08
2022-09-12T21:21:11.977Z,23.05
2022-09-12T21:23:40.191Z,23.03
2022-09-12T21:26:09.133Z,23.00
2022-09-12T21:28:37.341Z,22.96
2022-09-12T21:31:05.771Z,22.98
2022-09-12T21:33:34.894Z,22.97
2022-09-12T21:36:03.972Z,22.94
2022-09-12T21:38:32.558Z,22.93
2022-09-12T21:41:05.573Z,22.93
2022-09-12T21:43:33.726Z,22.88
2022-09-12T21:46:02.120Z,22.89
2022-09-12T21:48:30.392Z,22.86
2022-09-12T21:51:00.298Z,22.85
2022-09-12T21:53:28.385Z,22.83
2022-09-12T21:55:57.017Z,22.81
2022-09-12T21:58:24.769Z,22.79
2022-09-12T22:00:52.576Z,22.79
2022-09-12T22:03:20.805Z,22.75
2022-09-12T22:05:52.437Z,22.75
2022-09-12T22:08:22.062Z,22.73
2022-09-12T22:10:49.874Z,22.71
2022-09-12T22:13:17.831Z,22.70
2022-09-12T22:15:51.198Z,22.68
2022-09-12T22:18:19.175Z,22.67
2022-09-12T22:20:47.308Z,22.65
2022-09-12T22:23:33.219Z,22.64
2022-09-12T22:26:04.648Z,22.65
2022-09-12T22:28:32.729Z,22.63
2022-09-12T22:31:01.313Z,22.62
2022-09-12T22:33:29.184Z,22.60
2022-09-12T22:35:56.891Z,22.59
2022-09-12T22:38:26.528Z,22.58
2022-09-12T22:40:55.121Z,22.57
2022-09-12T22:43:24.463Z,22.57
2022-09-12T22:45:52.734Z,22.55
2022-09-12T22:48:20.906Z,22.53
2022-09-12T22:50:48.629Z,22.53
2022-09-12T22:53:16.885Z,22.52
2022-09-12T22:55:45.408Z,22.51
2022-09-12T22:58:13.177Z,22.48
2022-09-12T23:00:47.761Z,22.49
2022-09-12T23:03:15.953Z,22.46
2022-09-12T23:05:43.982Z,22.45
2022-09-12T23:08:12.257Z,22.45
2022-09-12T23:10:40.614Z,22.40
2022-09-12T23:13:08.876Z,22.44
2022-09-12T23:15:37.101Z,22.43
2022-09-12T23:18:06.760Z,22.43
2022-09-12T23:20:34.501Z,22.41
2022-09-12T23:23:02.910Z,22.41
2022-09-12T23:25:30.928Z,22.40
2022-09-12T23:27:58.918Z,22.40
2022-09-12T23:30:26.679Z,22.40
2022-09-12T23:32:54.409Z,22.38
2022-09-12T23:35:24.109Z,22.37
2022-09-12T23:37:51.880Z,22.35
2022-09-12T23:40:20.405Z,22.35
2022-09-12T23:42:48.192Z,22.34
2022-09-12T23:45:15.987Z,22.33
2022-09-12T23:47:44.356Z,22.32
2022-09-12T23:50:12.140Z,22.31
2022-09-12T23:52:41.773Z,22.29
2022-09-12T23:55:10.499Z,22.26
2022-09-12T23:57:39.395Z,22.23
